Terminal Aerodrome Forecast
Issued by NWS Green Bay, WI

Home | Current Version | Previous Version | Text Only | Print | Product List | Glossary On
Versions: 1 2 3 4 5 6 7 8 9 10 11 12 13 14 15 16 17 18 19 20 21 22 23 24 25 26 27 28 29 30 31 32 33 34 35 36 37 38 39 40 41 42 43 44 45 46 47 48 49 50
000
FTUS43 KGRB 111428 AAC
TAFGRB
TAF AMD
KGRB 111428Z 1114/1212 18007KT P6SM -SN SCT025 OVC040
      TEMPO 1114/1116 4SM -FZDZSN BR BKN025
     FM111600 21007KT 3SM -SHSN BKN015 OVC025
     FM112000 28008KT 5SM -SHSN OVC025
     FM112300 33014G22KT P6SM BKN035
     FM120100 33019G28KT P6SM SCT035=

USA.gov is the U.S. government's official web portal to all federal, state and local government web resources and services.